createdAt,value
2019-04-07T00:00:09.428Z,99.90
2019-04-07T00:02:39.489Z,99.90
2019-04-07T00:05:13.991Z,99.90
2019-04-07T00:07:41.360Z,99.90
2019-04-07T00:10:14.255Z,99.90
2019-04-07T00:12:43.939Z,99.90
2019-04-07T00:15:13.978Z,99.90
2019-04-07T00:17:44.144Z,99.90
2019-04-07T00:20:13.844Z,99.90
2019-04-07T00:22:43.086Z,99.90
2019-04-07T00:25:13.131Z,99.90
2019-04-07T00:27:42.515Z,99.90
2019-04-07T00:30:11.874Z,99.90
2019-04-07T00:32:41.387Z,99.90
2019-04-07T00:35:22.158Z,99.90
2019-04-07T00:37:43.991Z,99.90
2019-04-07T00:40:13.401Z,99.90
2019-04-07T00:42:42.906Z,99.90
2019-04-07T00:45:14.365Z,99.90
2019-04-07T00:47:44.015Z,99.90
2019-04-07T00:50:15.426Z,99.90
2019-04-07T00:52:44.870Z,99.90
2019-04-07T00:55:14.247Z,99.90
2019-04-07T00:57:44.070Z,99.90
2019-04-07T01:00:16.580Z,99.90
2019-04-07T01:02:46.553Z,99.90
2019-04-07T01:05:15.891Z,99.90
2019-04-07T01:07:45.262Z,99.90
2019-04-07T01:10:15.226Z,99.90
2019-04-07T01:12:44.671Z,99.90
2019-04-07T01:15:14.294Z,99.90
2019-04-07T01:17:43.734Z,99.90
2019-04-07T01:20:14.106Z,99.90
2019-04-07T01:22:43.603Z,99.90
2019-04-07T01:25:13.869Z,99.90
2019-04-07T01:27:45.819Z,99.90
2019-04-07T01:30:15.956Z,99.90
2019-04-07T01:32:45.555Z,99.90
2019-04-07T01:35:18.005Z,99.90
2019-04-07T01:37:47.910Z,99.90
2019-04-07T01:40:16.912Z,99.90
2019-04-07T01:42:56.417Z,99.90
2019-04-07T01:45:39.187Z,99.90
2019-04-07T01:48:21.719Z,99.90
2019-04-07T01:50:52.738Z,99.90
2019-04-07T01:53:31.958Z,99.90
2019-04-07T01:56:18.560Z,99.90
2019-04-07T01:58:49.374Z,99.90
2019-04-07T02:01:19.854Z,99.90
2019-04-07T02:04:06.775Z,99.90
2019-04-07T02:06:38.496Z,99.90
2019-04-07T02:09:17.081Z,99.90
2019-04-07T02:11:49.341Z,99.90
2019-04-07T02:14:37.775Z,99.90
2019-04-07T02:17:13.060Z,99.90
2019-04-07T02:19:56.071Z,99.90
2019-04-07T02:22:43.510Z,99.90
2019-04-07T02:25:20.946Z,99.90
2019-04-07T02:27:52.366Z,99.90
2019-04-07T02:30:23.700Z,99.90
2019-04-07T02:33:11.226Z,99.90
2019-04-07T02:35:43.105Z,99.90
2019-04-07T02:38:17.904Z,99.90
2019-04-07T02:40:49.391Z,99.90
2019-04-07T02:43:23.276Z,99.90
2019-04-07T02:46:13.733Z,99.90
2019-04-07T02:48:44.710Z,99.90
2019-04-07T02:51:28.279Z,99.90
2019-04-07T02:53:59.361Z,99.90
2019-04-07T02:56:33.863Z,99.90
2019-04-07T02:59:05.927Z,99.90
2019-04-07T03:01:45.529Z,99.90
2019-04-07T03:04:26.497Z,99.90
2019-04-07T03:07:02.768Z,99.90
2019-04-07T03:09:34.915Z,99.90
2019-04-07T03:12:07.171Z,99.90
2019-04-07T03:14:54.354Z,99.90
2019-04-07T03:17:34.949Z,99.90
2019-04-07T03:20:20.232Z,99.90
2019-04-07T03:23:07.318Z,99.90
2019-04-07T03:25:39.748Z,99.90
2019-04-07T03:28:11.673Z,99.90
2019-04-07T03:30:54.823Z,99.90
2019-04-07T03:33:27.595Z,99.90
2019-04-07T03:36:06.861Z,99.90
2019-04-07T03:38:42.980Z,99.90
2019-04-07T03:41:19.896Z,99.90
2019-04-07T03:44:03.316Z,99.90
2019-04-07T03:46:34.658Z,99.90
2019-04-07T03:49:12.185Z,99.90
2019-04-07T03:51:43.921Z,99.90
2019-04-07T03:54:16.617Z,99.90
2019-04-07T03:56:50.320Z,99.90
2019-04-07T03:59:30.094Z,99.90
2019-04-07T04:02:17.634Z,99.90
2019-04-07T04:04:49.862Z,99.90
2019-04-07T04:07:31.348Z,99.90
2019-04-07T04:10:03.487Z,99.90
2019-04-07T04:12:35.722Z,99.90
2019-04-07T04:15:11.550Z,99.90
2019-04-07T04:17:41.341Z,99.90
2019-04-07T04:20:12.747Z,99.90
2019-04-07T04:22:43.117Z,99.90
2019-04-07T04:25:13.382Z,99.90
2019-04-07T04:27:43.081Z,99.90
2019-04-07T04:30:16.904Z,99.90
2019-04-07T04:32:46.520Z,99.90
2019-04-07T04:35:16.942Z,99.90
2019-04-07T04:37:51.648Z,99.90
2019-04-07T04:40:18.117Z,99.90
2019-04-07T04:42:48.699Z,99.90
2019-04-07T04:45:18.507Z,99.90
2019-04-07T04:47:48.245Z,99.90
2019-04-07T04:50:18.119Z,99.90
2019-04-07T04:52:47.443Z,99.90
2019-04-07T04:55:16.979Z,99.90
2019-04-07T04:57:46.455Z,99.90
2019-04-07T05:00:15.943Z,99.90
2019-04-07T05:02:45.711Z,99.90
2019-04-07T05:05:15.374Z,99.90
2019-04-07T05:07:55.419Z,99.90
2019-04-07T05:10:15.715Z,99.90
2019-04-07T05:12:45.114Z,99.90
2019-04-07T05:15:14.730Z,99.90
2019-04-07T05:17:44.661Z,99.90
2019-04-07T05:20:14.121Z,99.90
2019-04-07T05:22:43.551Z,99.90
2019-04-07T05:25:13.088Z,99.90
2019-04-07T05:27:43.213Z,99.90
2019-04-07T05:30:12.959Z,99.90
2019-04-07T05:32:43.127Z,99.90
2019-04-07T05:35:13.177Z,99.90
2019-04-07T05:37:43.363Z,99.90
2019-04-07T05:40:14.013Z,99.90
2019-04-07T05:42:44.468Z,99.90
2019-04-07T05:45:14.167Z,99.90
2019-04-07T05:47:47.902Z,99.90
2019-04-07T05:50:15.482Z,99.90
2019-04-07T05:52:45.012Z,99.90
2019-04-07T05:55:15.187Z,99.90
2019-04-07T05:57:45.371Z,99.90
2019-04-07T06:00:16.958Z,99.90
2019-04-07T06:02:48.165Z,99.90
2019-04-07T06:05:19.377Z,99.90
2019-04-07T06:07:49.402Z,99.90
2019-04-07T06:10:22.875Z,99.90
2019-04-07T06:12:49.627Z,99.90
2019-04-07T06:15:22.004Z,99.90
2019-04-07T06:17:50.104Z,99.90
2019-04-07T06:20:19.797Z,99.90
2019-04-07T06:22:52.794Z,99.90
2019-04-07T06:25:20.856Z,99.90
2019-04-07T06:27:51.042Z,99.90
2019-04-07T06:30:23.303Z,99.90
2019-04-07T06:32:53.813Z,99.90
2019-04-07T06:35:24.194Z,99.90
2019-04-07T06:37:55.787Z,99.90
2019-04-07T06:40:24.905Z,99.90
2019-04-07T06:42:54.534Z,99.90
2019-04-07T06:45:25.930Z,99.90
2019-04-07T06:47:57.093Z,99.90
2019-04-07T06:50:49.421Z,99.90
2019-04-07T06:53:20.725Z,99.90
2019-04-07T06:55:59.127Z,99.90
2019-04-07T06:58:27.461Z,99.90
2019-04-07T07:01:16.620Z,99.90
2019-04-07T07:03:53.995Z,99.90
2019-04-07T07:06:26.723Z,99.90
2019-04-07T07:09:14.104Z,99.90
2019-04-07T07:11:46.587Z,99.90
2019-04-07T07:14:34.770Z,99.90
2019-04-07T07:17:19.568Z,99.90
2019-04-07T07:20:04.684Z,99.90
2019-04-07T07:22:40.225Z,99.90
2019-04-07T07:25:11.071Z,99.90
2019-04-07T07:27:41.587Z,99.90
2019-04-07T07:30:13.123Z,99.90
2019-04-07T07:32:44.113Z,99.90
2019-04-07T07:35:15.311Z,99.90
2019-04-07T07:37:45.507Z,99.90
2019-04-07T07:40:17.928Z,99.90
2019-04-07T07:42:49.020Z,99.90
2019-04-07T07:45:18.611Z,99.90
2019-04-07T07:47:53.213Z,99.90
2019-04-07T07:50:20.170Z,99.90
2019-04-07T07:52:53.139Z,99.90
2019-04-07T07:55:21.830Z,99.90
2019-04-07T07:57:55.502Z,99.90
2019-04-07T08:00:22.684Z,99.90
2019-04-07T08:02:53.479Z,99.90
2019-04-07T08:05:23.868Z,99.90
2019-04-07T08:07:54.074Z,99.90
2019-04-07T08:10:25.380Z,99.20
2019-04-07T08:12:56.248Z,98.00
2019-04-07T08:15:31.000Z,97.00
2019-04-07T08:17:57.411Z,96.30
2019-04-07T08:20:27.429Z,95.00
2019-04-07T08:22:57.100Z,93.40
2019-04-07T08:25:26.305Z,92.90
2019-04-07T08:27:55.498Z,91.20
2019-04-07T08:30:25.027Z,86.60
2019-04-07T08:32:57.660Z,86.60
2019-04-07T08:35:25.375Z,83.90
2019-04-07T08:37:54.604Z,84.70
2019-04-07T08:40:24.228Z,89.30
2019-04-07T08:42:53.424Z,89.30
2019-04-07T08:45:23.093Z,87.10
2019-04-07T08:47:52.848Z,87.50
2019-04-07T08:50:23.793Z,86.80
2019-04-07T08:52:53.918Z,85.20
2019-04-07T08:55:23.684Z,83.50
2019-04-07T08:57:53.245Z,81.00
2019-04-07T09:00:24.879Z,78.20
2019-04-07T09:03:02.434Z,75.30
2019-04-07T09:05:28.993Z,75.70
2019-04-07T09:07:56.071Z,78.20
2019-04-07T09:10:32.484Z,76.10
2019-04-07T09:13:03.037Z,75.00
2019-04-07T09:15:36.813Z,75.00
2019-04-07T09:18:15.249Z,74.80
2019-04-07T09:20:55.166Z,75.00
2019-04-07T09:23:43.960Z,73.80
2019-04-07T09:26:15.044Z,72.60
2019-04-07T09:28:46.233Z,71.30
2019-04-07T09:31:19.954Z,70.70
2019-04-07T09:33:55.079Z,71.30
2019-04-07T09:36:33.504Z,73.40
2019-04-07T09:39:11.201Z,74.70
2019-04-07T09:41:43.744Z,73.80
2019-04-07T09:44:15.884Z,74.90
2019-04-07T09:46:50.564Z,72.30
2019-04-07T09:49:31.942Z,70.20
2019-04-07T09:52:19.516Z,68.00
2019-04-07T09:55:08.575Z,67.20
2019-04-07T09:57:46.371Z,68.30
2019-04-07T10:00:23.023Z,68.60
2019-04-07T10:02:53.058Z,67.70
2019-04-07T10:05:42.070Z,67.80
2019-04-07T10:08:22.312Z,67.90
2019-04-07T10:11:11.854Z,67.60
2019-04-07T10:13:44.100Z,65.20
2019-04-07T10:16:17.978Z,64.60
2019-04-07T10:19:04.723Z,66.00
2019-04-07T10:21:39.294Z,65.50
2019-04-07T10:24:14.144Z,63.60
2019-04-07T10:26:50.931Z,66.00
2019-04-07T10:29:25.328Z,65.80
2019-04-07T10:31:56.602Z,67.90
2019-04-07T10:34:46.147Z,70.20
2019-04-07T10:37:32.051Z,71.00
2019-04-07T10:40:21.790Z,72.80
2019-04-07T10:43:10.674Z,74.60
2019-04-07T10:45:41.960Z,73.70
2019-04-07T10:48:25.914Z,73.80
2019-04-07T10:51:01.160Z,73.00
2019-04-07T10:53:33.154Z,74.70
2019-04-07T10:56:05.573Z,76.90
2019-04-07T10:58:40.298Z,77.50
2019-04-07T11:01:11.234Z,75.80
2019-04-07T11:03:55.623Z,76.60
2019-04-07T11:06:32.579Z,76.30
2019-04-07T11:09:19.489Z,76.50
2019-04-07T11:12:06.817Z,78.30
2019-04-07T11:14:50.157Z,78.50
2019-04-07T11:17:21.576Z,79.00
2019-04-07T11:19:55.430Z,79.10
2019-04-07T11:22:33.781Z,79.10
2019-04-07T11:25:15.042Z,79.70
2019-04-07T11:27:55.010Z,80.50
2019-04-07T11:30:29.467Z,81.00
2019-04-07T11:33:00.866Z,79.60
2019-04-07T11:35:32.099Z,79.40
2019-04-07T11:38:06.003Z,78.40
2019-04-07T11:40:52.465Z,77.20
2019-04-07T11:43:27.021Z,77.50
2019-04-07T11:46:04.634Z,77.50
2019-04-07T11:48:47.933Z,78.90
2019-04-07T11:51:33.514Z,78.70
2019-04-07T11:54:10.409Z,79.50
2019-04-07T11:56:47.204Z,80.50
2019-04-07T11:59:33.414Z,80.70
2019-04-07T12:02:10.688Z,81.70
2019-04-07T12:04:51.004Z,82.80
2019-04-07T12:07:23.087Z,83.80
2019-04-07T12:10:09.579Z,85.80
2019-04-07T12:12:52.736Z,86.10
2019-04-07T12:15:29.145Z,83.80
2019-04-07T12:18:18.857Z,83.10
2019-04-07T12:20:49.264Z,83.30
2019-04-07T12:23:36.976Z,84.40
2019-04-07T12:26:25.883Z,85.10
2019-04-07T12:29:09.988Z,83.90
2019-04-07T12:31:47.439Z,84.00
2019-04-07T12:34:18.976Z,85.00
2019-04-07T12:37:02.280Z,85.80
2019-04-07T12:39:33.665Z,85.30
2019-04-07T12:42:11.234Z,85.20
2019-04-07T12:44:58.439Z,85.30
2019-04-07T12:47:45.873Z,84.90
2019-04-07T12:50:35.491Z,84.20
2019-04-07T12:53:23.692Z,83.30
2019-04-07T12:55:59.129Z,82.90
2019-04-07T12:58:27.945Z,82.90
2019-04-07T13:01:06.874Z,83.30
2019-04-07T13:03:43.761Z,83.90
2019-04-07T13:06:24.175Z,84.70
2019-04-07T13:08:57.178Z,84.50
2019-04-07T13:11:38.474Z,85.00
2019-04-07T13:14:09.755Z,84.90
2019-04-07T13:17:00.161Z,84.30
2019-04-07T13:19:29.670Z,84.40
2019-04-07T13:22:17.046Z,84.90
2019-04-07T13:25:00.170Z,83.60
2019-04-07T13:27:37.784Z,84.00
2019-04-07T13:30:08.866Z,84.40
2019-04-07T13:32:50.416Z,84.30
2019-04-07T13:35:34.079Z,84.40
2019-04-07T13:38:17.576Z,84.40
2019-04-07T13:41:05.507Z,83.50
2019-04-07T13:43:37.078Z,84.10
2019-04-07T13:46:23.263Z,84.70
2019-04-07T13:48:58.792Z,84.10
2019-04-07T13:51:29.145Z,84.30
2019-04-07T13:54:03.248Z,85.20
2019-04-07T13:56:52.274Z,85.70
2019-04-07T13:59:44.882Z,84.70
2019-04-07T14:02:27.835Z,84.60
2019-04-07T14:04:56.930Z,83.80
2019-04-07T14:07:49.157Z,84.50
2019-04-07T14:10:28.561Z,85.50
2019-04-07T14:13:14.821Z,85.10
2019-04-07T14:16:01.550Z,84.70
2019-04-07T14:18:36.666Z,85.70
2019-04-07T14:21:07.796Z,85.90
2019-04-07T14:23:42.300Z,85.20
2019-04-07T14:26:16.795Z,85.90
2019-04-07T14:28:57.673Z,85.50
2019-04-07T14:31:32.508Z,86.10
2019-04-07T14:34:13.947Z,86.20
2019-04-07T14:36:52.381Z,86.30
2019-04-07T14:39:23.925Z,86.70
2019-04-07T14:42:12.051Z,86.50
2019-04-07T14:44:43.439Z,85.80
2019-04-07T14:47:16.937Z,84.90
2019-04-07T14:50:06.874Z,84.20
2019-04-07T14:52:41.204Z,85.50
2019-04-07T14:55:16.087Z,85.80
2019-04-07T14:57:47.068Z,86.50
2019-04-07T15:00:26.986Z,86.20
2019-04-07T15:02:56.542Z,86.60
2019-04-07T15:05:27.796Z,86.20
2019-04-07T15:08:09.484Z,86.10
2019-04-07T15:10:43.490Z,85.60
2019-04-07T15:13:14.502Z,87.20
2019-04-07T15:15:44.253Z,86.20
2019-04-07T15:18:14.271Z,85.80
2019-04-07T15:20:43.682Z,86.10
2019-04-07T15:23:13.317Z,85.10
2019-04-07T15:25:46.074Z,85.30
2019-04-07T15:28:15.464Z,84.80
2019-04-07T15:30:47.975Z,85.40
2019-04-07T15:33:16.083Z,83.50
2019-04-07T15:35:47.848Z,82.20
2019-04-07T15:38:16.496Z,81.10
2019-04-07T15:40:47.012Z,80.40
2019-04-07T15:43:17.063Z,80.60
2019-04-07T15:45:46.961Z,82.10
2019-04-07T15:48:17.138Z,82.50
2019-04-07T15:50:47.536Z,83.40
2019-04-07T15:53:17.726Z,83.30
2019-04-07T15:55:56.630Z,83.50
2019-04-07T15:58:18.966Z,84.30
2019-04-07T16:00:48.689Z,84.90
2019-04-07T16:03:19.217Z,85.80
2019-04-07T16:05:50.208Z,85.90
2019-04-07T16:08:20.149Z,86.10
2019-04-07T16:10:52.105Z,86.50
2019-04-07T16:13:21.702Z,85.70
2019-04-07T16:15:54.752Z,86.10
2019-04-07T16:18:23.176Z,86.80
2019-04-07T16:20:53.191Z,87.60
2019-04-07T16:23:27.277Z,87.60
2019-04-07T16:26:00.529Z,87.70
2019-04-07T16:28:29.657Z,88.00
2019-04-07T16:30:58.893Z,88.60
2019-04-07T16:33:28.593Z,88.70
2019-04-07T16:36:00.073Z,88.90
2019-04-07T16:38:30.354Z,89.50
2019-04-07T16:41:00.458Z,89.80
2019-04-07T16:43:32.172Z,90.00
2019-04-07T16:46:01.784Z,90.50
2019-04-07T16:48:36.017Z,90.40
2019-04-07T16:51:03.370Z,91.00
2019-04-07T16:53:36.471Z,91.60
2019-04-07T16:56:05.216Z,91.00
2019-04-07T16:58:37.670Z,91.50
2019-04-07T17:01:07.707Z,92.10
2019-04-07T17:03:37.296Z,93.20
2019-04-07T17:06:07.383Z,93.00
2019-04-07T17:08:37.921Z,91.80
2019-04-07T17:11:08.153Z,92.50
2019-04-07T17:13:41.843Z,92.90
2019-04-07T17:16:11.963Z,92.30
2019-04-07T17:18:43.280Z,92.70
2019-04-07T17:21:19.054Z,93.00
2019-04-07T17:23:48.214Z,92.80
2019-04-07T17:26:18.163Z,93.80
2019-04-07T17:28:49.525Z,94.50
2019-04-07T17:31:19.090Z,94.80
2019-04-07T17:33:48.932Z,94.70
2019-04-07T17:36:21.620Z,95.10
2019-04-07T17:38:54.006Z,95.60
2019-04-07T17:41:23.491Z,95.50
2019-04-07T17:44:00.417Z,96.00
2019-04-07T17:46:34.006Z,96.80
2019-04-07T17:49:17.377Z,97.50
2019-04-07T17:51:58.622Z,97.60
2019-04-07T17:54:39.633Z,98.10
2019-04-07T17:57:10.950Z,98.90
2019-04-07T17:59:48.449Z,99.30
2019-04-07T18:02:37.577Z,99.90
2019-04-07T18:05:12.693Z,99.90
2019-04-07T18:08:00.379Z,99.90
2019-04-07T18:10:46.603Z,99.90
2019-04-07T18:13:22.660Z,99.90
2019-04-07T18:16:03.703Z,99.90
2019-04-07T18:18:40.119Z,99.90
2019-04-07T18:21:15.422Z,99.90
2019-04-07T18:24:26.077Z,99.90
2019-04-07T18:27:18.354Z,99.90
2019-04-07T18:29:50.281Z,99.90
2019-04-07T18:32:21.901Z,99.90
2019-04-07T18:34:52.895Z,99.90
2019-04-07T18:37:44.207Z,99.90
2019-04-07T18:40:19.951Z,99.90
2019-04-07T18:42:51.100Z,99.90
2019-04-07T18:45:30.796Z,99.90
2019-04-07T18:48:02.270Z,99.90
2019-04-07T18:50:37.812Z,99.90
2019-04-07T18:53:14.673Z,99.90
2019-04-07T18:55:48.810Z,99.90
2019-04-07T18:58:20.396Z,99.90
2019-04-07T19:01:07.414Z,99.90
2019-04-07T19:03:42.590Z,99.90
2019-04-07T19:06:14.826Z,99.90
2019-04-07T19:09:00.061Z,99.90
2019-04-07T19:11:39.727Z,99.90
2019-04-07T19:14:30.786Z,99.90
2019-04-07T19:16:50.739Z,99.90
2019-04-07T19:19:27.752Z,99.90
2019-04-07T19:22:04.621Z,99.90
2019-04-07T19:24:37.851Z,99.90
2019-04-07T19:27:22.085Z,99.90
2019-04-07T19:30:11.571Z,99.90
2019-04-07T19:32:42.122Z,99.90
2019-04-07T19:35:15.152Z,99.90
2019-04-07T19:38:03.334Z,99.90
2019-04-07T19:40:34.454Z,99.90
2019-04-07T19:43:20.869Z,99.90
2019-04-07T19:46:04.783Z,99.90
2019-04-07T19:48:42.717Z,99.90
2019-04-07T19:51:17.770Z,99.90
2019-04-07T19:53:59.431Z,99.90
2019-04-07T19:56:52.772Z,99.90
2019-04-07T19:59:23.861Z,99.90
2019-04-07T20:02:07.527Z,99.90
2019-04-07T20:04:40.145Z,99.90
2019-04-07T20:07:14.248Z,99.90
2019-04-07T20:10:03.156Z,99.90
2019-04-07T20:12:46.652Z,99.90
2019-04-07T20:15:18.056Z,99.90
2019-04-07T20:17:54.868Z,99.90
2019-04-07T20:20:43.455Z,99.90
2019-04-07T20:23:16.869Z,99.90
2019-04-07T20:25:55.296Z,99.90
2019-04-07T20:28:43.568Z,99.90
2019-04-07T20:31:31.233Z,99.90
2019-04-07T20:34:06.093Z,99.90
2019-04-07T20:36:38.006Z,99.90
2019-04-07T20:39:09.673Z,99.90
2019-04-07T20:41:43.702Z,99.90
2019-04-07T20:44:14.852Z,99.90
2019-04-07T20:46:49.151Z,99.90
2019-04-07T20:49:20.150Z,99.90
2019-04-07T20:52:11.344Z,99.90
2019-04-07T20:55:03.737Z,99.90
2019-04-07T20:58:09.509Z,99.90
2019-04-07T21:00:55.023Z,99.90
2019-04-07T21:03:27.662Z,99.90
2019-04-07T21:06:10.963Z,99.90
2019-04-07T21:08:51.737Z,99.90
2019-04-07T21:11:40.694Z,99.90
2019-04-07T21:14:24.935Z,99.90
2019-04-07T21:16:59.432Z,99.90
2019-04-07T21:19:35.504Z,99.90
2019-04-07T21:22:06.778Z,99.90
2019-04-07T21:24:43.509Z,99.90
2019-04-07T21:27:14.393Z,99.90
2019-04-07T21:29:48.020Z,99.90
2019-04-07T21:32:22.891Z,99.90
2019-04-07T21:34:55.781Z,99.90
2019-04-07T21:37:27.251Z,99.90
2019-04-07T21:40:06.283Z,99.90
2019-04-07T21:42:38.098Z,99.90
2019-04-07T21:45:12.831Z,99.90
2019-04-07T21:47:44.241Z,99.90
2019-04-07T21:50:20.819Z,99.90
2019-04-07T21:53:03.111Z,99.90
2019-04-07T21:55:43.111Z,99.90
2019-04-07T21:58:14.496Z,99.90
2019-04-07T22:00:52.990Z,99.90
2019-04-07T22:03:24.143Z,99.90
2019-04-07T22:06:06.975Z,99.90
2019-04-07T22:08:41.992Z,99.90
2019-04-07T22:11:11.303Z,99.90
2019-04-07T22:13:40.805Z,99.90
2019-04-07T22:16:11.497Z,99.90
2019-04-07T22:18:41.834Z,99.90
2019-04-07T22:21:11.756Z,99.90
2019-04-07T22:23:41.073Z,99.90
2019-04-07T22:26:16.758Z,99.90
2019-04-07T22:28:42.595Z,99.90
2019-04-07T22:31:14.672Z,99.90
2019-04-07T22:33:44.835Z,99.90
2019-04-07T22:36:14.544Z,99.90
2019-04-07T22:38:44.662Z,99.90
2019-04-07T22:41:13.895Z,99.90
2019-04-07T22:43:43.478Z,99.90
2019-04-07T22:46:19.492Z,99.90
2019-04-07T22:48:44.310Z,99.90
2019-04-07T22:51:14.941Z,99.90
2019-04-07T22:53:45.302Z,99.90
2019-04-07T22:56:16.027Z,99.90
2019-04-07T22:58:46.458Z,99.90
2019-04-07T23:01:16.555Z,99.90
2019-04-07T23:03:46.258Z,99.90
2019-04-07T23:06:15.476Z,99.90
2019-04-07T23:08:45.345Z,99.90
2019-04-07T23:11:16.103Z,99.90
2019-04-07T23:13:45.681Z,99.90
2019-04-07T23:16:17.424Z,99.90
2019-04-07T23:18:46.506Z,99.90
2019-04-07T23:21:17.155Z,99.90
2019-04-07T23:23:48.314Z,99.90
2019-04-07T23:26:18.109Z,99.90
2019-04-07T23:28:48.549Z,99.90
2019-04-07T23:31:19.401Z,99.90
2019-04-07T23:33:48.930Z,99.90
2019-04-07T23:36:18.156Z,99.90
2019-04-07T23:38:47.541Z,99.90
2019-04-07T23:41:18.020Z,99.90
2019-04-07T23:43:47.855Z,99.90
2019-04-07T23:46:22.833Z,99.90
2019-04-07T23:48:48.432Z,99.90
2019-04-07T23:51:18.805Z,99.90
2019-04-07T23:54:09.272Z,99.90
2019-04-07T23:56:43.612Z,99.90
2019-04-07T23:59:14.601Z,99.90
